sensor_id;sensor_type;location;lat;lon;timestamp;P1;durP1;ratioP1;P2;durP2;ratioP2
23680;SDS011;62915;50.832;4.462;2022-08-19T00:00:26;10.25;;;8.93;;
23680;SDS011;62915;50.832;4.462;2022-08-19T00:02:52;10.32;;;9.13;;
23680;SDS011;62915;50.832;4.462;2022-08-19T00:05:19;9.70;;;8.55;;
23680;SDS011;62915;50.832;4.462;2022-08-19T00:07:46;13.02;;;10.15;;
23680;SDS011;62915;50.832;4.462;2022-08-19T00:10:14;12.45;;;10.30;;
23680;SDS011;62915;50.832;4.462;2022-08-19T00:12:40;11.50;;;10.30;;
23680;SDS011;62915;50.832;4.462;2022-08-19T00:15:11;11.75;;;9.93;;
23680;SDS011;62915;50.832;4.462;2022-08-19T00:17:40;12.23;;;9.93;;
23680;SDS011;62915;50.832;4.462;2022-08-19T00:20:08;11.80;;;10.35;;
23680;SDS011;62915;50.832;4.462;2022-08-19T00:22:36;12.30;;;10.27;;
23680;SDS011;62915;50.832;4.462;2022-08-19T00:25:03;17.45;;;14.32;;
23680;SDS011;62915;50.832;4.462;2022-08-19T00:27:30;38.28;;;24.00;;
23680;SDS011;62915;50.832;4.462;2022-08-19T00:29:56;33.80;;;23.65;;
23680;SDS011;62915;50.832;4.462;2022-08-19T00:32:23;39.33;;;27.90;;
23680;SDS011;62915;50.832;4.462;2022-08-19T00:34:50;52.83;;;31.75;;
23680;SDS011;62915;50.832;4.462;2022-08-19T00:37:18;50.00;;;34.33;;
23680;SDS011;62915;50.832;4.462;2022-08-19T00:39:48;47.47;;;32.67;;
23680;SDS011;62915;50.832;4.462;2022-08-19T00:42:16;53.17;;;34.65;;
23680;SDS011;62915;50.832;4.462;2022-08-19T00:44:42;56.47;;;36.75;;
23680;SDS011;62915;50.832;4.462;2022-08-19T00:47:08;54.45;;;34.58;;
23680;SDS011;62915;50.832;4.462;2022-08-19T00:49:35;61.15;;;37.47;;
23680;SDS011;62915;50.832;4.462;2022-08-19T00:52:15;61.42;;;37.88;;
23680;SDS011;62915;50.832;4.462;2022-08-19T00:54:47;66.00;;;39.50;;
23680;SDS011;62915;50.832;4.462;2022-08-19T00:57:15;58.95;;;38.38;;
23680;SDS011;62915;50.832;4.462;2022-08-19T00:59:44;60.97;;;39.25;;
23680;SDS011;62915;50.832;4.462;2022-08-19T01:02:14;67.72;;;39.58;;
23680;SDS011;62915;50.832;4.462;2022-08-19T01:04:41;75.47;;;42.63;;
23680;SDS011;62915;50.832;4.462;2022-08-19T01:07:07;74.72;;;45.67;;
23680;SDS011;62915;50.832;4.462;2022-08-19T01:09:32;70.43;;;43.42;;
23680;SDS011;62915;50.832;4.462;2022-08-19T01:11:59;77.78;;;45.38;;
23680;SDS011;62915;50.832;4.462;2022-08-19T01:14:25;79.35;;;46.70;;
23680;SDS011;62915;50.832;4.462;2022-08-19T01:16:51;80.05;;;48.03;;
23680;SDS011;62915;50.832;4.462;2022-08-19T01:22:43;76.90;;;45.83;;
23680;SDS011;62915;50.832;4.462;2022-08-19T01:24:48;73.85;;;45.47;;
23680;SDS011;62915;50.832;4.462;2022-08-19T01:27:14;66.45;;;43.50;;
23680;SDS011;62915;50.832;4.462;2022-08-19T01:29:41;71.60;;;44.53;;
23680;SDS011;62915;50.832;4.462;2022-08-19T01:32:12;70.35;;;43.53;;
23680;SDS011;62915;50.832;4.462;2022-08-19T01:34:40;71.40;;;43.20;;
23680;SDS011;62915;50.832;4.462;2022-08-19T01:37:10;73.95;;;43.08;;
23680;SDS011;62915;50.832;4.462;2022-08-19T01:39:37;66.57;;;41.33;;
23680;SDS011;62915;50.832;4.462;2022-08-19T01:42:05;66.30;;;41.58;;
23680;SDS011;62915;50.832;4.462;2022-08-19T01:44:35;61.75;;;38.85;;
23680;SDS011;62915;50.832;4.462;2022-08-19T01:47:01;62.58;;;38.80;;
23680;SDS011;62915;50.832;4.462;2022-08-19T01:49:27;58.42;;;37.38;;
23680;SDS011;62915;50.832;4.462;2022-08-19T01:51:53;50.30;;;35.63;;
23680;SDS011;62915;50.832;4.462;2022-08-19T01:54:20;52.85;;;36.05;;
23680;SDS011;62915;50.832;4.462;2022-08-19T01:56:47;48.65;;;33.88;;
23680;SDS011;62915;50.832;4.462;2022-08-19T01:59:16;48.00;;;33.20;;
23680;SDS011;62915;50.832;4.462;2022-08-19T02:01:43;44.78;;;32.03;;
23680;SDS011;62915;50.832;4.462;2022-08-19T02:04:09;43.40;;;29.70;;
23680;SDS011;62915;50.832;4.462;2022-08-19T02:06:35;46.80;;;30.88;;
23680;SDS011;62915;50.832;4.462;2022-08-19T02:09:02;38.92;;;29.17;;
23680;SDS011;62915;50.832;4.462;2022-08-19T02:11:30;37.15;;;26.48;;
23680;SDS011;62915;50.832;4.462;2022-08-19T02:13:59;37.08;;;27.58;;
23680;SDS011;62915;50.832;4.462;2022-08-19T02:16:27;38.63;;;27.88;;
23680;SDS011;62915;50.832;4.462;2022-08-19T02:18:53;34.63;;;25.27;;
23680;SDS011;62915;50.832;4.462;2022-08-19T02:21:21;35.15;;;24.88;;
23680;SDS011;62915;50.832;4.462;2022-08-19T02:23:48;40.28;;;26.20;;
23680;SDS011;62915;50.832;4.462;2022-08-19T02:26:15;35.85;;;26.10;;
23680;SDS011;62915;50.832;4.462;2022-08-19T02:28:41;36.15;;;24.08;;
23680;SDS011;62915;50.832;4.462;2022-08-19T02:31:18;31.80;;;23.20;;
23680;SDS011;62915;50.832;4.462;2022-08-19T02:33:46;30.95;;;22.73;;
23680;SDS011;62915;50.832;4.462;2022-08-19T02:36:12;30.30;;;21.30;;
23680;SDS011;62915;50.832;4.462;2022-08-19T02:38:40;29.38;;;21.10;;
23680;SDS011;62915;50.832;4.462;2022-08-19T02:41:28;26.48;;;19.73;;
23680;SDS011;62915;50.832;4.462;2022-08-19T02:43:57;26.00;;;19.00;;
23680;SDS011;62915;50.832;4.462;2022-08-19T02:46:25;30.98;;;19.83;;
23680;SDS011;62915;50.832;4.462;2022-08-19T02:48:53;31.20;;;21.38;;
23680;SDS011;62915;50.832;4.462;2022-08-19T02:51:22;28.13;;;21.25;;
23680;SDS011;62915;50.832;4.462;2022-08-19T02:53:53;28.48;;;20.65;;
23680;SDS011;62915;50.832;4.462;2022-08-19T02:56:19;27.90;;;21.38;;
23680;SDS011;62915;50.832;4.462;2022-08-19T02:58:46;28.05;;;21.23;;
23680;SDS011;62915;50.832;4.462;2022-08-19T03:01:20;31.00;;;21.27;;
23680;SDS011;62915;50.832;4.462;2022-08-19T03:03:47;27.88;;;20.85;;
23680;SDS011;62915;50.832;4.462;2022-08-19T03:06:14;31.75;;;22.27;;
23680;SDS011;62915;50.832;4.462;2022-08-19T03:08:41;27.02;;;20.52;;
23680;SDS011;62915;50.832;4.462;2022-08-19T03:11:16;27.92;;;20.83;;
23680;SDS011;62915;50.832;4.462;2022-08-19T03:13:50;32.75;;;23.95;;
23680;SDS011;62915;50.832;4.462;2022-08-19T03:16:17;32.15;;;22.73;;
23680;SDS011;62915;50.832;4.462;2022-08-19T03:18:44;29.23;;;21.75;;
23680;SDS011;62915;50.832;4.462;2022-08-19T03:21:16;35.72;;;22.50;;
23680;SDS011;62915;50.832;4.462;2022-08-19T03:23:42;34.28;;;22.80;;
23680;SDS011;62915;50.832;4.462;2022-08-19T03:26:09;35.40;;;22.17;;
23680;SDS011;62915;50.832;4.462;2022-08-19T03:28:34;31.55;;;22.08;;
23680;SDS011;62915;50.832;4.462;2022-08-19T03:31:03;36.95;;;22.45;;
23680;SDS011;62915;50.832;4.462;2022-08-19T03:33:32;33.00;;;22.65;;
23680;SDS011;62915;50.832;4.462;2022-08-19T03:36:06;35.20;;;23.52;;
23680;SDS011;62915;50.832;4.462;2022-08-19T03:38:42;39.83;;;24.75;;
23680;SDS011;62915;50.832;4.462;2022-08-19T03:41:12;33.22;;;23.50;;
23680;SDS011;62915;50.832;4.462;2022-08-19T03:43:40;34.90;;;23.98;;
23680;SDS011;62915;50.832;4.462;2022-08-19T03:46:08;31.23;;;22.45;;
23680;SDS011;62915;50.832;4.462;2022-08-19T03:48:37;32.63;;;22.23;;
23680;SDS011;62915;50.832;4.462;2022-08-19T03:51:05;40.97;;;21.77;;
23680;SDS011;62915;50.832;4.462;2022-08-19T03:53:32;27.80;;;19.75;;
23680;SDS011;62915;50.832;4.462;2022-08-19T03:56:00;33.08;;;20.55;;
23680;SDS011;62915;50.832;4.462;2022-08-19T03:58:27;27.75;;;20.33;;
23680;SDS011;62915;50.832;4.462;2022-08-19T04:00:57;28.23;;;20.58;;
23680;SDS011;62915;50.832;4.462;2022-08-19T04:03:24;35.40;;;21.05;;
23680;SDS011;62915;50.832;4.462;2022-08-19T04:05:51;33.78;;;22.15;;
23680;SDS011;62915;50.832;4.462;2022-08-19T04:08:18;35.42;;;21.75;;
23680;SDS011;62915;50.832;4.462;2022-08-19T04:10:47;30.60;;;21.65;;
23680;SDS011;62915;50.832;4.462;2022-08-19T04:13:17;34.95;;;23.40;;
23680;SDS011;62915;50.832;4.462;2022-08-19T04:15:44;35.55;;;22.65;;
23680;SDS011;62915;50.832;4.462;2022-08-19T04:18:11;32.50;;;21.48;;
23680;SDS011;62915;50.832;4.462;2022-08-19T04:20:43;39.45;;;22.85;;
23680;SDS011;62915;50.832;4.462;2022-08-19T04:23:10;36.45;;;22.02;;
23680;SDS011;62915;50.832;4.462;2022-08-19T04:25:38;32.75;;;22.48;;
23680;SDS011;62915;50.832;4.462;2022-08-19T04:28:08;38.63;;;24.08;;
23680;SDS011;62915;50.832;4.462;2022-08-19T04:30:39;31.83;;;21.85;;
23680;SDS011;62915;50.832;4.462;2022-08-19T04:33:08;34.33;;;21.67;;
23680;SDS011;62915;50.832;4.462;2022-08-19T04:35:39;33.50;;;22.05;;
23680;SDS011;62915;50.832;4.462;2022-08-19T04:38:07;37.20;;;21.27;;
23680;SDS011;62915;50.832;4.462;2022-08-19T04:40:33;28.85;;;19.70;;
23680;SDS011;62915;50.832;4.462;2022-08-19T04:43:22;31.05;;;18.42;;
23680;SDS011;62915;50.832;4.462;2022-08-19T04:45:48;35.00;;;18.95;;
23680;SDS011;62915;50.832;4.462;2022-08-19T04:48:15;34.92;;;20.13;;
23680;SDS011;62915;50.832;4.462;2022-08-19T04:50:41;38.25;;;20.60;;
23680;SDS011;62915;50.832;4.462;2022-08-19T04:53:08;29.98;;;19.25;;
23680;SDS011;62915;50.832;4.462;2022-08-19T04:55:34;32.30;;;19.90;;
23680;SDS011;62915;50.832;4.462;2022-08-19T04:58:03;28.77;;;19.88;;
23680;SDS011;62915;50.832;4.462;2022-08-19T05:00:28;31.13;;;20.15;;
23680;SDS011;62915;50.832;4.462;2022-08-19T05:02:54;33.85;;;19.60;;
23680;SDS011;62915;50.832;4.462;2022-08-19T05:05:20;33.00;;;18.80;;
23680;SDS011;62915;50.832;4.462;2022-08-19T05:07:46;33.50;;;19.02;;
23680;SDS011;62915;50.832;4.462;2022-08-19T05:10:12;27.70;;;18.30;;
23680;SDS011;62915;50.832;4.462;2022-08-19T05:12:38;31.40;;;19.95;;
23680;SDS011;62915;50.832;4.462;2022-08-19T05:15:04;32.13;;;19.98;;
23680;SDS011;62915;50.832;4.462;2022-08-19T05:17:33;37.08;;;21.05;;
23680;SDS011;62915;50.832;4.462;2022-08-19T05:19:59;34.40;;;20.60;;
23680;SDS011;62915;50.832;4.462;2022-08-19T05:22:45;35.95;;;21.02;;
23680;SDS011;62915;50.832;4.462;2022-08-19T05:25:12;29.52;;;20.52;;
23680;SDS011;62915;50.832;4.462;2022-08-19T05:27:43;34.63;;;22.20;;
23680;SDS011;62915;50.832;4.462;2022-08-19T05:30:10;36.10;;;20.70;;
23680;SDS011;62915;50.832;4.462;2022-08-19T05:32:37;35.95;;;21.15;;
23680;SDS011;62915;50.832;4.462;2022-08-19T05:35:04;31.33;;;20.70;;
23680;SDS011;62915;50.832;4.462;2022-08-19T05:37:30;32.90;;;21.35;;
23680;SDS011;62915;50.832;4.462;2022-08-19T05:39:56;35.58;;;22.10;;
23680;SDS011;62915;50.832;4.462;2022-08-19T05:42:22;37.08;;;20.88;;
23680;SDS011;62915;50.832;4.462;2022-08-19T05:44:49;34.80;;;22.05;;
23680;SDS011;62915;50.832;4.462;2022-08-19T05:47:15;33.50;;;20.50;;
23680;SDS011;62915;50.832;4.462;2022-08-19T05:49:43;34.95;;;20.20;;
23680;SDS011;62915;50.832;4.462;2022-08-19T05:52:11;32.40;;;20.00;;
23680;SDS011;62915;50.832;4.462;2022-08-19T05:54:39;33.83;;;20.27;;
23680;SDS011;62915;50.832;4.462;2022-08-19T05:57:06;27.25;;;18.90;;
23680;SDS011;62915;50.832;4.462;2022-08-19T05:59:32;28.77;;;18.77;;
23680;SDS011;62915;50.832;4.462;2022-08-19T06:02:00;30.02;;;18.15;;
23680;SDS011;62915;50.832;4.462;2022-08-19T06:04:27;30.83;;;17.88;;
23680;SDS011;62915;50.832;4.462;2022-08-19T06:06:53;27.98;;;18.25;;
23680;SDS011;62915;50.832;4.462;2022-08-19T06:09:21;27.65;;;17.45;;
23680;SDS011;62915;50.832;4.462;2022-08-19T06:11:49;26.08;;;16.88;;
23680;SDS011;62915;50.832;4.462;2022-08-19T06:14:21;25.70;;;16.42;;
23680;SDS011;62915;50.832;4.462;2022-08-19T06:16:50;23.55;;;15.85;;
23680;SDS011;62915;50.832;4.462;2022-08-19T06:19:18;25.17;;;15.57;;
23680;SDS011;62915;50.832;4.462;2022-08-19T06:21:46;23.13;;;14.82;;
23680;SDS011;62915;50.832;4.462;2022-08-19T06:24:14;26.35;;;12.95;;
23680;SDS011;62915;50.832;4.462;2022-08-19T06:26:42;21.40;;;13.35;;
23680;SDS011;62915;50.832;4.462;2022-08-19T06:29:11;25.75;;;12.82;;
23680;SDS011;62915;50.832;4.462;2022-08-19T06:31:41;22.20;;;11.27;;
23680;SDS011;62915;50.832;4.462;2022-08-19T06:34:09;19.48;;;11.32;;
23680;SDS011;62915;50.832;4.462;2022-08-19T06:36:36;14.80;;;10.00;;
23680;SDS011;62915;50.832;4.462;2022-08-19T06:39:17;15.20;;;9.65;;
23680;SDS011;62915;50.832;4.462;2022-08-19T06:41:46;16.88;;;10.52;;
23680;SDS011;62915;50.832;4.462;2022-08-19T06:44:14;15.27;;;9.93;;
23680;SDS011;62915;50.832;4.462;2022-08-19T06:46:40;16.20;;;9.43;;
23680;SDS011;62915;50.832;4.462;2022-08-19T06:49:06;19.50;;;10.18;;
23680;SDS011;62915;50.832;4.462;2022-08-19T06:51:35;12.57;;;8.73;;
23680;SDS011;62915;50.832;4.462;2022-08-19T06:54:01;17.02;;;8.43;;
23680;SDS011;62915;50.832;4.462;2022-08-19T06:56:28;16.80;;;8.45;;
23680;SDS011;62915;50.832;4.462;2022-08-19T06:59:07;16.10;;;8.90;;
23680;SDS011;62915;50.832;4.462;2022-08-19T07:01:38;14.68;;;8.15;;
23680;SDS011;62915;50.832;4.462;2022-08-19T07:04:06;16.45;;;8.90;;
23680;SDS011;62915;50.832;4.462;2022-08-19T07:06:33;12.57;;;7.97;;
23680;SDS011;62915;50.832;4.462;2022-08-19T07:09:00;12.93;;;8.50;;
23680;SDS011;62915;50.832;4.462;2022-08-19T07:11:26;15.05;;;9.32;;
23680;SDS011;62915;50.832;4.462;2022-08-19T07:13:52;15.88;;;8.88;;
23680;SDS011;62915;50.832;4.462;2022-08-19T07:16:19;11.90;;;8.13;;
23680;SDS011;62915;50.832;4.462;2022-08-19T07:18:46;14.25;;;8.95;;
23680;SDS011;62915;50.832;4.462;2022-08-19T07:21:17;15.80;;;7.93;;
23680;SDS011;62915;50.832;4.462;2022-08-19T07:23:48;15.68;;;9.50;;
23680;SDS011;62915;50.832;4.462;2022-08-19T07:26:18;14.93;;;7.93;;
23680;SDS011;62915;50.832;4.462;2022-08-19T07:28:50;22.13;;;9.18;;
23680;SDS011;62915;50.832;4.462;2022-08-19T07:31:17;15.98;;;8.60;;
23680;SDS011;62915;50.832;4.462;2022-08-19T07:33:45;20.33;;;8.73;;
23680;SDS011;62915;50.832;4.462;2022-08-19T07:36:13;15.65;;;9.40;;
23680;SDS011;62915;50.832;4.462;2022-08-19T07:38:43;18.33;;;9.75;;
23680;SDS011;62915;50.832;4.462;2022-08-19T07:41:10;14.88;;;8.75;;
23680;SDS011;62915;50.832;4.462;2022-08-19T07:43:38;12.52;;;7.97;;
23680;SDS011;62915;50.832;4.462;2022-08-19T07:46:05;15.77;;;7.60;;
23680;SDS011;62915;50.832;4.462;2022-08-19T07:48:32;10.63;;;7.75;;
23680;SDS011;62915;50.832;4.462;2022-08-19T07:50:59;11.57;;;7.68;;
23680;SDS011;62915;50.832;4.462;2022-08-19T07:53:27;17.63;;;8.05;;
23680;SDS011;62915;50.832;4.462;2022-08-19T07:55:54;13.73;;;8.45;;
23680;SDS011;62915;50.832;4.462;2022-08-19T07:58:25;13.57;;;7.57;;
23680;SDS011;62915;50.832;4.462;2022-08-19T08:00:50;13.20;;;7.15;;
23680;SDS011;62915;50.832;4.462;2022-08-19T08:03:17;17.52;;;7.28;;
23680;SDS011;62915;50.832;4.462;2022-08-19T08:05:44;12.32;;;8.00;;
23680;SDS011;62915;50.832;4.462;2022-08-19T08:08:29;11.40;;;7.07;;
23680;SDS011;62915;50.832;4.462;2022-08-19T08:11:10;14.05;;;7.68;;
23680;SDS011;62915;50.832;4.462;2022-08-19T08:13:37;13.50;;;6.57;;
23680;SDS011;62915;50.832;4.462;2022-08-19T08:16:03;18.00;;;8.40;;
23680;SDS011;62915;50.832;4.462;2022-08-19T08:18:30;11.38;;;7.82;;
23680;SDS011;62915;50.832;4.462;2022-08-19T08:20:56;12.68;;;8.10;;
23680;SDS011;62915;50.832;4.462;2022-08-19T08:23:23;10.30;;;6.88;;
23680;SDS011;62915;50.832;4.462;2022-08-19T08:25:53;11.90;;;7.15;;
23680;SDS011;62915;50.832;4.462;2022-08-19T08:28:21;11.55;;;6.75;;
23680;SDS011;62915;50.832;4.462;2022-08-19T08:30:48;8.38;;;6.07;;
23680;SDS011;62915;50.832;4.462;2022-08-19T08:33:18;12.23;;;6.70;;
23680;SDS011;62915;50.832;4.462;2022-08-19T08:35:46;9.77;;;5.78;;
23680;SDS011;62915;50.832;4.462;2022-08-19T08:38:13;9.05;;;6.75;;
23680;SDS011;62915;50.832;4.462;2022-08-19T08:40:42;10.95;;;5.95;;
23680;SDS011;62915;50.832;4.462;2022-08-19T08:43:19;12.05;;;6.82;;
23680;SDS011;62915;50.832;4.462;2022-08-19T08:51:37;9.38;;;5.35;;
23680;SDS011;62915;50.832;4.462;2022-08-19T08:56:33;7.65;;;4.50;;
23680;SDS011;62915;50.832;4.462;2022-08-19T08:59:06;6.88;;;4.63;;
23680;SDS011;62915;50.832;4.462;2022-08-19T09:01:37;7.00;;;4.80;;
23680;SDS011;62915;50.832;4.462;2022-08-19T09:04:04;8.90;;;4.43;;
23680;SDS011;62915;50.832;4.462;2022-08-19T09:09:43;7.13;;;5.57;;
23680;SDS011;62915;50.832;4.462;2022-08-19T09:14:50;10.35;;;6.00;;
23680;SDS011;62915;50.832;4.462;2022-08-19T09:17:30;10.10;;;5.57;;
23680;SDS011;62915;50.832;4.462;2022-08-19T09:22:47;9.20;;;5.60;;
23680;SDS011;62915;50.832;4.462;2022-08-19T09:25:15;11.30;;;5.80;;
23680;SDS011;62915;50.832;4.462;2022-08-19T09:27:46;13.77;;;6.05;;
23680;SDS011;62915;50.832;4.462;2022-08-19T09:30:16;7.65;;;5.72;;
23680;SDS011;62915;50.832;4.462;2022-08-19T09:32:47;9.65;;;5.47;;
23680;SDS011;62915;50.832;4.462;2022-08-19T09:35:13;11.35;;;4.95;;
23680;SDS011;62915;50.832;4.462;2022-08-19T09:37:40;10.57;;;5.85;;
23680;SDS011;62915;50.832;4.462;2022-08-19T09:40:07;8.70;;;5.10;;
23680;SDS011;62915;50.832;4.462;2022-08-19T09:42:33;7.38;;;4.90;;
23680;SDS011;62915;50.832;4.462;2022-08-19T09:44:59;8.90;;;5.05;;
23680;SDS011;62915;50.832;4.462;2022-08-19T09:47:25;7.20;;;5.68;;
23680;SDS011;62915;50.832;4.462;2022-08-19T09:49:51;9.57;;;5.53;;
23680;SDS011;62915;50.832;4.462;2022-08-19T09:52:18;8.70;;;4.75;;
23680;SDS011;62915;50.832;4.462;2022-08-19T09:54:44;10.63;;;4.70;;
23680;SDS011;62915;50.832;4.462;2022-08-19T09:57:09;8.82;;;5.10;;
23680;SDS011;62915;50.832;4.462;2022-08-19T09:59:35;6.70;;;4.57;;
23680;SDS011;62915;50.832;4.462;2022-08-19T10:02:01;9.80;;;4.53;;
23680;SDS011;62915;50.832;4.462;2022-08-19T10:04:27;9.30;;;5.03;;
23680;SDS011;62915;50.832;4.462;2022-08-19T10:07:13;9.50;;;6.03;;
23680;SDS011;62915;50.832;4.462;2022-08-19T10:09:39;8.10;;;5.20;;
23680;SDS011;62915;50.832;4.462;2022-08-19T10:12:06;9.43;;;4.95;;
23680;SDS011;62915;50.832;4.462;2022-08-19T10:14:33;6.85;;;4.63;;
23680;SDS011;62915;50.832;4.462;2022-08-19T10:16:59;8.25;;;4.50;;
23680;SDS011;62915;50.832;4.462;2022-08-19T10:19:27;7.15;;;4.22;;
23680;SDS011;62915;50.832;4.462;2022-08-19T10:21:55;8.30;;;4.90;;
23680;SDS011;62915;50.832;4.462;2022-08-19T10:24:21;9.77;;;4.97;;
23680;SDS011;62915;50.832;4.462;2022-08-19T10:26:49;8.35;;;4.97;;
23680;SDS011;62915;50.832;4.462;2022-08-19T10:29:15;5.55;;;4.50;;
23680;SDS011;62915;50.832;4.462;2022-08-19T10:31:41;7.78;;;4.57;;
23680;SDS011;62915;50.832;4.462;2022-08-19T10:34:07;6.15;;;4.35;;
23680;SDS011;62915;50.832;4.462;2022-08-19T10:36:35;7.18;;;4.13;;
23680;SDS011;62915;50.832;4.462;2022-08-19T10:39:06;6.50;;;4.22;;
23680;SDS011;62915;50.832;4.462;2022-08-19T10:41:35;7.13;;;4.57;;
23680;SDS011;62915;50.832;4.462;2022-08-19T10:44:03;5.82;;;4.90;;
23680;SDS011;62915;50.832;4.462;2022-08-19T10:46:31;9.27;;;4.80;;
23680;SDS011;62915;50.832;4.462;2022-08-19T10:49:01;8.63;;;5.47;;
23680;SDS011;62915;50.832;4.462;2022-08-19T10:51:29;10.40;;;6.10;;
23680;SDS011;62915;50.832;4.462;2022-08-19T10:54:14;12.25;;;6.78;;
23680;SDS011;62915;50.832;4.462;2022-08-19T10:56:39;7.80;;;6.20;;
23680;SDS011;62915;50.832;4.462;2022-08-19T10:59:24;12.27;;;6.43;;
23680;SDS011;62915;50.832;4.462;2022-08-19T11:01:53;8.80;;;6.93;;
23680;SDS011;62915;50.832;4.462;2022-08-19T11:04:23;9.25;;;6.90;;
23680;SDS011;62915;50.832;4.462;2022-08-19T11:06:49;10.13;;;6.95;;
23680;SDS011;62915;50.832;4.462;2022-08-19T11:09:16;8.15;;;6.93;;
23680;SDS011;62915;50.832;4.462;2022-08-19T11:11:43;8.07;;;6.50;;
23680;SDS011;62915;50.832;4.462;2022-08-19T11:14:10;12.63;;;7.50;;
23680;SDS011;62915;50.832;4.462;2022-08-19T11:16:38;10.65;;;7.68;;
23680;SDS011;62915;50.832;4.462;2022-08-19T11:19:05;16.77;;;7.78;;
23680;SDS011;62915;50.832;4.462;2022-08-19T11:21:39;10.15;;;7.70;;
23680;SDS011;62915;50.832;4.462;2022-08-19T11:24:17;8.65;;;6.65;;
23680;SDS011;62915;50.832;4.462;2022-08-19T11:26:46;10.48;;;7.15;;
23680;SDS011;62915;50.832;4.462;2022-08-19T11:29:14;9.80;;;6.93;;
23680;SDS011;62915;50.832;4.462;2022-08-19T11:31:44;10.90;;;7.43;;
23680;SDS011;62915;50.832;4.462;2022-08-19T11:34:12;11.82;;;8.73;;
23680;SDS011;62915;50.832;4.462;2022-08-19T11:36:42;13.77;;;9.05;;
23680;SDS011;62915;50.832;4.462;2022-08-19T11:39:10;11.32;;;8.38;;
23680;SDS011;62915;50.832;4.462;2022-08-19T11:41:38;10.55;;;8.05;;
23680;SDS011;62915;50.832;4.462;2022-08-19T11:44:04;10.52;;;8.77;;
23680;SDS011;62915;50.832;4.462;2022-08-19T11:46:31;12.00;;;9.40;;
23680;SDS011;62915;50.832;4.462;2022-08-19T11:48:57;11.45;;;9.30;;
23680;SDS011;62915;50.832;4.462;2022-08-19T11:51:25;13.98;;;8.85;;
23680;SDS011;62915;50.832;4.462;2022-08-19T11:53:54;13.95;;;8.70;;
23680;SDS011;62915;50.832;4.462;2022-08-19T11:56:21;16.02;;;9.45;;
23680;SDS011;62915;50.832;4.462;2022-08-19T11:58:48;10.55;;;8.13;;
23680;SDS011;62915;50.832;4.462;2022-08-19T12:01:15;12.75;;;8.80;;
23680;SDS011;62915;50.832;4.462;2022-08-19T12:03:43;12.13;;;8.23;;
23680;SDS011;62915;50.832;4.462;2022-08-19T12:06:12;9.23;;;8.23;;
23680;SDS011;62915;50.832;4.462;2022-08-19T12:08:40;11.80;;;7.97;;
23680;SDS011;62915;50.832;4.462;2022-08-19T12:11:08;11.98;;;7.28;;
23680;SDS011;62915;50.832;4.462;2022-08-19T12:13:35;10.40;;;7.43;;
23680;SDS011;62915;50.832;4.462;2022-08-19T12:16:10;10.50;;;7.90;;
23680;SDS011;62915;50.832;4.462;2022-08-19T12:18:41;8.13;;;6.65;;
23680;SDS011;62915;50.832;4.462;2022-08-19T12:21:11;9.60;;;7.10;;
23680;SDS011;62915;50.832;4.462;2022-08-19T12:23:39;11.25;;;6.50;;
23680;SDS011;62915;50.832;4.462;2022-08-19T12:26:06;7.97;;;5.35;;
23680;SDS011;62915;50.832;4.462;2022-08-19T12:28:31;12.30;;;7.15;;
23680;SDS011;62915;50.832;4.462;2022-08-19T12:30:59;9.93;;;6.30;;
23680;SDS011;62915;50.832;4.462;2022-08-19T12:33:24;6.82;;;5.50;;
23680;SDS011;62915;50.832;4.462;2022-08-19T12:35:52;7.75;;;5.25;;
23680;SDS011;62915;50.832;4.462;2022-08-19T12:38:19;8.35;;;5.60;;
23680;SDS011;62915;50.832;4.462;2022-08-19T12:40:45;9.30;;;5.63;;
23680;SDS011;62915;50.832;4.462;2022-08-19T12:43:12;9.50;;;4.85;;
23680;SDS011;62915;50.832;4.462;2022-08-19T12:45:38;4.82;;;4.40;;
23680;SDS011;62915;50.832;4.462;2022-08-19T12:48:04;7.50;;;4.63;;
23680;SDS011;62915;50.832;4.462;2022-08-19T12:50:30;5.28;;;4.00;;
23680;SDS011;62915;50.832;4.462;2022-08-19T12:52:56;8.40;;;4.00;;
23680;SDS011;62915;50.832;4.462;2022-08-19T12:55:23;7.55;;;3.80;;
23680;SDS011;62915;50.832;4.462;2022-08-19T12:57:50;4.43;;;3.42;;
23680;SDS011;62915;50.832;4.462;2022-08-19T13:00:17;5.35;;;3.72;;
23680;SDS011;62915;50.832;4.462;2022-08-19T13:02:46;4.25;;;2.95;;
23680;SDS011;62915;50.832;4.462;2022-08-19T13:05:15;5.85;;;2.90;;
23680;SDS011;62915;50.832;4.462;2022-08-19T13:07:45;3.10;;;2.58;;
23680;SDS011;62915;50.832;4.462;2022-08-19T13:10:13;3.13;;;2.35;;
23680;SDS011;62915;50.832;4.462;2022-08-19T13:12:45;6.65;;;3.10;;
23680;SDS011;62915;50.832;4.462;2022-08-19T13:15:13;4.18;;;2.47;;
23680;SDS011;62915;50.832;4.462;2022-08-19T13:17:39;3.08;;;2.63;;
23680;SDS011;62915;50.832;4.462;2022-08-19T13:20:09;4.05;;;2.70;;
23680;SDS011;62915;50.832;4.462;2022-08-19T13:22:36;3.88;;;3.08;;
23680;SDS011;62915;50.832;4.462;2022-08-19T13:25:03;2.95;;;2.10;;
23680;SDS011;62915;50.832;4.462;2022-08-19T13:27:32;2.88;;;2.22;;
23680;SDS011;62915;50.832;4.462;2022-08-19T13:30:00;5.22;;;2.20;;
23680;SDS011;62915;50.832;4.462;2022-08-19T13:32:45;5.15;;;2.60;;
23680;SDS011;62915;50.832;4.462;2022-08-19T13:35:29;2.17;;;1.90;;
23680;SDS011;62915;50.832;4.462;2022-08-19T13:37:55;4.22;;;1.92;;
23680;SDS011;62915;50.832;4.462;2022-08-19T13:40:22;2.00;;;1.80;;
23680;SDS011;62915;50.832;4.462;2022-08-19T13:42:50;2.15;;;1.95;;
23680;SDS011;62915;50.832;4.462;2022-08-19T13:45:18;5.03;;;2.65;;
23680;SDS011;62915;50.832;4.462;2022-08-19T13:47:50;5.50;;;2.03;;
23680;SDS011;62915;50.832;4.462;2022-08-19T13:50:18;3.67;;;1.70;;
23680;SDS011;62915;50.832;4.462;2022-08-19T13:52:46;3.80;;;2.03;;
23680;SDS011;62915;50.832;4.462;2022-08-19T13:55:13;2.40;;;2.10;;
23680;SDS011;62915;50.832;4.462;2022-08-19T13:57:40;2.60;;;1.90;;
23680;SDS011;62915;50.832;4.462;2022-08-19T14:00:12;3.13;;;2.25;;
23680;SDS011;62915;50.832;4.462;2022-08-19T14:02:40;2.95;;;2.13;;
23680;SDS011;62915;50.832;4.462;2022-08-19T14:05:07;3.17;;;2.30;;
23680;SDS011;62915;50.832;4.462;2022-08-19T14:07:36;4.03;;;2.08;;
23680;SDS011;62915;50.832;4.462;2022-08-19T14:10:02;4.47;;;2.20;;
23680;SDS011;62915;50.832;4.462;2022-08-19T14:12:30;5.97;;;2.00;;
23680;SDS011;62915;50.832;4.462;2022-08-19T14:14:57;3.10;;;1.77;;
23680;SDS011;62915;50.832;4.462;2022-08-19T14:17:23;4.47;;;1.85;;
23680;SDS011;62915;50.832;4.462;2022-08-19T14:19:49;4.13;;;1.83;;
23680;SDS011;62915;50.832;4.462;2022-08-19T14:22:21;3.58;;;1.52;;
23680;SDS011;62915;50.832;4.462;2022-08-19T14:24:46;2.25;;;1.25;;
23680;SDS011;62915;50.832;4.462;2022-08-19T14:27:13;3.30;;;1.50;;
23680;SDS011;62915;50.832;4.462;2022-08-19T14:29:39;3.38;;;1.63;;
23680;SDS011;62915;50.832;4.462;2022-08-19T14:32:05;3.20;;;1.30;;
23680;SDS011;62915;50.832;4.462;2022-08-19T14:34:30;5.15;;;2.13;;
23680;SDS011;62915;50.832;4.462;2022-08-19T14:36:57;3.63;;;1.40;;
23680;SDS011;62915;50.832;4.462;2022-08-19T14:39:23;4.50;;;2.15;;
23680;SDS011;62915;50.832;4.462;2022-08-19T14:41:48;5.13;;;1.55;;
23680;SDS011;62915;50.832;4.462;2022-08-19T14:44:14;4.45;;;1.65;;
23680;SDS011;62915;50.832;4.462;2022-08-19T14:46:40;3.63;;;1.30;;
23680;SDS011;62915;50.832;4.462;2022-08-19T14:49:05;3.08;;;1.40;;
23680;SDS011;62915;50.832;4.462;2022-08-19T14:51:32;3.58;;;1.20;;
23680;SDS011;62915;50.832;4.462;2022-08-19T14:53:58;6.97;;;1.10;;
23680;SDS011;62915;50.832;4.462;2022-08-19T14:56:25;2.00;;;1.10;;
23680;SDS011;62915;50.832;4.462;2022-08-19T14:58:52;1.98;;;1.13;;